sensor_id;sensor_type;location;lat;lon;timestamp;P1;durP1;ratioP1;P2;durP2;ratioP2
55146;SDS011;41039;49.830;23.988;2023-05-23T00:00:44;6.55;;;4.43;;
55146;SDS011;41039;49.830;23.988;2023-05-23T00:03:10;8.88;;;4.57;;
55146;SDS011;41039;49.830;23.988;2023-05-23T00:05:35;9.55;;;4.57;;
55146;SDS011;41039;49.830;23.988;2023-05-23T00:08:00;5.05;;;4.15;;
55146;SDS011;41039;49.830;23.988;2023-05-23T00:10:26;10.77;;;4.80;;
55146;SDS011;41039;49.830;23.988;2023-05-23T00:12:51;6.68;;;4.15;;
55146;SDS011;41039;49.830;23.988;2023-05-23T00:15:17;7.53;;;4.20;;
55146;SDS011;41039;49.830;23.988;2023-05-23T00:17:42;8.80;;;4.80;;
55146;SDS011;41039;49.830;23.988;2023-05-23T00:20:08;8.00;;;4.82;;
55146;SDS011;41039;49.830;23.988;2023-05-23T00:22:34;8.68;;;5.00;;
55146;SDS011;41039;49.830;23.988;2023-05-23T00:25:06;7.20;;;5.13;;
55146;SDS011;41039;49.830;23.988;2023-05-23T00:27:31;8.95;;;4.72;;
55146;SDS011;41039;49.830;23.988;2023-05-23T00:29:56;10.63;;;4.60;;
55146;SDS011;41039;49.830;23.988;2023-05-23T00:32:22;8.80;;;4.90;;
55146;SDS011;41039;49.830;23.988;2023-05-23T00:34:47;7.70;;;4.30;;
55146;SDS011;41039;49.830;23.988;2023-05-23T00:37:12;8.13;;;4.77;;
55146;SDS011;41039;49.830;23.988;2023-05-23T00:39:37;9.48;;;4.78;;
55146;SDS011;41039;49.830;23.988;2023-05-23T00:42:03;7.27;;;4.17;;
55146;SDS011;41039;49.830;23.988;2023-05-23T00:44:29;8.45;;;4.70;;
55146;SDS011;41039;49.830;23.988;2023-05-23T00:46:55;8.18;;;4.53;;
55146;SDS011;41039;49.830;23.988;2023-05-23T00:49:20;8.15;;;5.05;;
55146;SDS011;41039;49.830;23.988;2023-05-23T00:51:46;6.88;;;4.35;;
55146;SDS011;41039;49.830;23.988;2023-05-23T00:54:13;6.15;;;4.45;;
55146;SDS011;41039;49.830;23.988;2023-05-23T00:56:39;8.35;;;4.95;;
55146;SDS011;41039;49.830;23.988;2023-05-23T00:59:05;6.30;;;3.97;;
55146;SDS011;41039;49.830;23.988;2023-05-23T01:01:30;7.35;;;4.70;;
55146;SDS011;41039;49.830;23.988;2023-05-23T01:03:57;6.90;;;4.28;;
55146;SDS011;41039;49.830;23.988;2023-05-23T01:06:22;6.55;;;4.00;;
55146;SDS011;41039;49.830;23.988;2023-05-23T01:08:47;7.37;;;4.43;;
55146;SDS011;41039;49.830;23.988;2023-05-23T01:11:24;7.22;;;4.57;;
55146;SDS011;41039;49.830;23.988;2023-05-23T01:13:58;8.55;;;4.30;;
55146;SDS011;41039;49.830;23.988;2023-05-23T01:21:44;5.55;;;4.10;;
55146;SDS011;41039;49.830;23.988;2023-05-23T01:26:56;7.63;;;4.20;;
55146;SDS011;41039;49.830;23.988;2023-05-23T01:29:26;6.43;;;3.97;;
55146;SDS011;41039;49.830;23.988;2023-05-23T01:31:53;7.43;;;4.03;;
55146;SDS011;41039;49.830;23.988;2023-05-23T01:34:20;8.65;;;3.90;;
55146;SDS011;41039;49.830;23.988;2023-05-23T01:36:48;7.10;;;3.95;;
55146;SDS011;41039;49.830;23.988;2023-05-23T01:39:13;6.75;;;4.35;;
55146;SDS011;41039;49.830;23.988;2023-05-23T01:41:38;6.68;;;4.00;;
55146;SDS011;41039;49.830;23.988;2023-05-23T01:44:03;8.03;;;4.50;;
55146;SDS011;41039;49.830;23.988;2023-05-23T01:46:29;6.95;;;3.90;;
55146;SDS011;41039;49.830;23.988;2023-05-23T01:48:56;7.53;;;3.95;;
55146;SDS011;41039;49.830;23.988;2023-05-23T01:51:22;9.30;;;3.95;;
55146;SDS011;41039;49.830;23.988;2023-05-23T01:53:48;5.53;;;3.85;;
55146;SDS011;41039;49.830;23.988;2023-05-23T01:56:14;8.15;;;4.47;;
55146;SDS011;41039;49.830;23.988;2023-05-23T01:58:39;9.55;;;4.20;;
55146;SDS011;41039;49.830;23.988;2023-05-23T02:01:05;6.75;;;3.97;;
55146;SDS011;41039;49.830;23.988;2023-05-23T02:03:30;8.38;;;4.53;;
55146;SDS011;41039;49.830;23.988;2023-05-23T02:05:55;9.52;;;4.43;;
55146;SDS011;41039;49.830;23.988;2023-05-23T02:08:21;8.98;;;4.03;;
55146;SDS011;41039;49.830;23.988;2023-05-23T02:10:46;8.03;;;4.40;;
55146;SDS011;41039;49.830;23.988;2023-05-23T02:13:11;8.50;;;4.53;;
55146;SDS011;41039;49.830;23.988;2023-05-23T02:15:36;8.43;;;5.10;;
55146;SDS011;41039;49.830;23.988;2023-05-23T02:18:02;13.93;;;5.03;;
55146;SDS011;41039;49.830;23.988;2023-05-23T02:20:28;7.72;;;4.18;;
55146;SDS011;41039;49.830;23.988;2023-05-23T02:22:53;7.95;;;4.57;;
55146;SDS011;41039;49.830;23.988;2023-05-23T02:25:18;7.32;;;4.60;;
55146;SDS011;41039;49.830;23.988;2023-05-23T02:27:43;6.45;;;4.15;;
55146;SDS011;41039;49.830;23.988;2023-05-23T02:30:09;6.65;;;4.47;;
55146;SDS011;41039;49.830;23.988;2023-05-23T02:32:34;8.70;;;4.78;;
55146;SDS011;41039;49.830;23.988;2023-05-23T02:35:01;7.20;;;3.83;;
55146;SDS011;41039;49.830;23.988;2023-05-23T02:37:26;7.93;;;4.70;;
55146;SDS011;41039;49.830;23.988;2023-05-23T02:39:52;8.02;;;4.30;;
55146;SDS011;41039;49.830;23.988;2023-05-23T02:42:17;7.55;;;4.72;;
55146;SDS011;41039;49.830;23.988;2023-05-23T02:44:42;7.75;;;4.75;;
55146;SDS011;41039;49.830;23.988;2023-05-23T02:47:07;7.05;;;4.40;;
55146;SDS011;41039;49.830;23.988;2023-05-23T02:49:32;8.10;;;4.60;;
55146;SDS011;41039;49.830;23.988;2023-05-23T02:51:58;8.23;;;4.72;;
55146;SDS011;41039;49.830;23.988;2023-05-23T02:54:23;8.43;;;4.13;;
55146;SDS011;41039;49.830;23.988;2023-05-23T02:56:48;9.13;;;4.77;;
55146;SDS011;41039;49.830;23.988;2023-05-23T02:59:16;9.00;;;4.60;;
55146;SDS011;41039;49.830;23.988;2023-05-23T03:01:41;8.73;;;4.70;;
55146;SDS011;41039;49.830;23.988;2023-05-23T03:04:07;7.63;;;4.60;;
55146;SDS011;41039;49.830;23.988;2023-05-23T03:06:32;11.60;;;4.80;;
55146;SDS011;41039;49.830;23.988;2023-05-23T03:08:58;7.30;;;4.63;;
55146;SDS011;41039;49.830;23.988;2023-05-23T03:11:23;9.27;;;4.38;;
55146;SDS011;41039;49.830;23.988;2023-05-23T03:13:49;8.43;;;4.88;;
55146;SDS011;41039;49.830;23.988;2023-05-23T03:16:14;8.18;;;4.55;;
55146;SDS011;41039;49.830;23.988;2023-05-23T03:18:39;7.73;;;3.77;;
55146;SDS011;41039;49.830;23.988;2023-05-23T03:21:06;8.68;;;4.72;;
55146;SDS011;41039;49.830;23.988;2023-05-23T03:23:31;8.02;;;4.30;;
55146;SDS011;41039;49.830;23.988;2023-05-23T03:25:56;9.47;;;4.60;;
55146;SDS011;41039;49.830;23.988;2023-05-23T03:28:23;7.50;;;4.40;;
55146;SDS011;41039;49.830;23.988;2023-05-23T03:30:48;10.95;;;4.60;;
55146;SDS011;41039;49.830;23.988;2023-05-23T03:33:14;10.90;;;4.93;;
55146;SDS011;41039;49.830;23.988;2023-05-23T03:35:39;15.65;;;5.35;;
55146;SDS011;41039;49.830;23.988;2023-05-23T03:38:05;9.57;;;4.75;;
55146;SDS011;41039;49.830;23.988;2023-05-23T03:40:31;8.45;;;4.40;;
55146;SDS011;41039;49.830;23.988;2023-05-23T03:43:03;7.78;;;5.07;;
55146;SDS011;41039;49.830;23.988;2023-05-23T03:45:31;7.70;;;4.68;;
55146;SDS011;41039;49.830;23.988;2023-05-23T03:48:00;9.10;;;5.15;;
55146;SDS011;41039;49.830;23.988;2023-05-23T03:50:25;8.70;;;5.45;;
55146;SDS011;41039;49.830;23.988;2023-05-23T03:52:50;11.10;;;5.10;;
55146;SDS011;41039;49.830;23.988;2023-05-23T03:55:16;7.95;;;4.55;;
55146;SDS011;41039;49.830;23.988;2023-05-23T03:57:41;10.00;;;5.10;;
55146;SDS011;41039;49.830;23.988;2023-05-23T04:00:06;11.38;;;4.55;;
55146;SDS011;41039;49.830;23.988;2023-05-23T04:02:36;7.07;;;4.85;;
55146;SDS011;41039;49.830;23.988;2023-05-23T04:05:05;12.85;;;5.00;;
55146;SDS011;41039;49.830;23.988;2023-05-23T04:07:30;7.32;;;4.25;;
55146;SDS011;41039;49.830;23.988;2023-05-23T04:09:58;8.35;;;4.85;;
55146;SDS011;41039;49.830;23.988;2023-05-23T04:12:23;9.05;;;5.47;;
55146;SDS011;41039;49.830;23.988;2023-05-23T04:14:49;9.00;;;4.60;;
55146;SDS011;41039;49.830;23.988;2023-05-23T04:17:14;12.00;;;5.78;;
55146;SDS011;41039;49.830;23.988;2023-05-23T04:19:39;8.23;;;4.57;;
55146;SDS011;41039;49.830;23.988;2023-05-23T04:22:05;11.82;;;4.55;;
55146;SDS011;41039;49.830;23.988;2023-05-23T04:24:30;9.80;;;5.10;;
55146;SDS011;41039;49.830;23.988;2023-05-23T04:26:55;9.10;;;4.63;;
55146;SDS011;41039;49.830;23.988;2023-05-23T04:29:21;12.10;;;4.95;;
55146;SDS011;41039;49.830;23.988;2023-05-23T04:31:46;11.05;;;5.15;;
55146;SDS011;41039;49.830;23.988;2023-05-23T04:34:11;25.85;;;6.68;;
55146;SDS011;41039;49.830;23.988;2023-05-23T04:36:37;9.05;;;4.53;;
55146;SDS011;41039;49.830;23.988;2023-05-23T04:39:03;15.57;;;5.38;;
55146;SDS011;41039;49.830;23.988;2023-05-23T04:41:29;15.85;;;5.93;;
55146;SDS011;41039;49.830;23.988;2023-05-23T04:43:54;11.23;;;5.30;;
55146;SDS011;41039;49.830;23.988;2023-05-23T04:46:22;9.50;;;5.40;;
55146;SDS011;41039;49.830;23.988;2023-05-23T04:48:50;10.45;;;5.47;;
55146;SDS011;41039;49.830;23.988;2023-05-23T04:51:15;10.75;;;5.30;;
55146;SDS011;41039;49.830;23.988;2023-05-23T04:53:40;10.73;;;5.73;;
55146;SDS011;41039;49.830;23.988;2023-05-23T04:56:06;9.98;;;5.07;;
55146;SDS011;41039;49.830;23.988;2023-05-23T04:58:32;9.73;;;4.95;;
55146;SDS011;41039;49.830;23.988;2023-05-23T05:00:57;13.32;;;5.07;;
55146;SDS011;41039;49.830;23.988;2023-05-23T05:03:23;11.07;;;4.53;;
55146;SDS011;41039;49.830;23.988;2023-05-23T05:05:49;8.27;;;5.30;;
55146;SDS011;41039;49.830;23.988;2023-05-23T05:08:14;8.30;;;4.88;;
55146;SDS011;41039;49.830;23.988;2023-05-23T05:10:39;11.73;;;5.93;;
55146;SDS011;41039;49.830;23.988;2023-05-23T05:13:05;8.90;;;4.70;;
55146;SDS011;41039;49.830;23.988;2023-05-23T05:15:30;9.00;;;4.97;;
55146;SDS011;41039;49.830;23.988;2023-05-23T05:17:56;8.45;;;4.85;;
55146;SDS011;41039;49.830;23.988;2023-05-23T05:20:21;9.43;;;5.25;;
55146;SDS011;41039;49.830;23.988;2023-05-23T05:22:53;9.10;;;5.35;;
55146;SDS011;41039;49.830;23.988;2023-05-23T05:25:18;8.38;;;4.72;;
55146;SDS011;41039;49.830;23.988;2023-05-23T05:27:45;9.57;;;5.20;;
55146;SDS011;41039;49.830;23.988;2023-05-23T05:30:10;7.50;;;5.18;;
55146;SDS011;41039;49.830;23.988;2023-05-23T05:32:35;11.18;;;5.20;;
55146;SDS011;41039;49.830;23.988;2023-05-23T05:35:01;12.25;;;5.25;;
55146;SDS011;41039;49.830;23.988;2023-05-23T05:37:27;9.48;;;4.63;;
55146;SDS011;41039;49.830;23.988;2023-05-23T05:39:53;11.88;;;4.85;;
55146;SDS011;41039;49.830;23.988;2023-05-23T05:42:18;12.10;;;4.80;;
55146;SDS011;41039;49.830;23.988;2023-05-23T05:44:44;11.77;;;4.30;;
55146;SDS011;41039;49.830;23.988;2023-05-23T05:47:09;16.35;;;4.43;;
55146;SDS011;41039;49.830;23.988;2023-05-23T05:49:35;10.77;;;4.53;;
55146;SDS011;41039;49.830;23.988;2023-05-23T05:52:00;7.30;;;4.27;;
55146;SDS011;41039;49.830;23.988;2023-05-23T05:54:25;9.52;;;4.22;;
55146;SDS011;41039;49.830;23.988;2023-05-23T05:56:50;8.10;;;3.97;;
55146;SDS011;41039;49.830;23.988;2023-05-23T05:59:16;12.10;;;4.50;;
55146;SDS011;41039;49.830;23.988;2023-05-23T06:01:41;12.18;;;4.70;;
55146;SDS011;41039;49.830;23.988;2023-05-23T06:04:06;19.00;;;4.97;;
55146;SDS011;41039;49.830;23.988;2023-05-23T06:06:31;20.00;;;5.50;;
55146;SDS011;41039;49.830;23.988;2023-05-23T06:08:57;15.60;;;4.63;;
55146;SDS011;41039;49.830;23.988;2023-05-23T06:11:22;18.55;;;5.10;;
55146;SDS011;41039;49.830;23.988;2023-05-23T06:13:47;17.35;;;4.55;;
55146;SDS011;41039;49.830;23.988;2023-05-23T06:16:13;19.93;;;3.97;;
55146;SDS011;41039;49.830;23.988;2023-05-23T06:18:39;11.35;;;4.47;;
55146;SDS011;41039;49.830;23.988;2023-05-23T06:21:04;12.85;;;4.63;;
55146;SDS011;41039;49.830;23.988;2023-05-23T06:23:29;10.77;;;4.03;;
55146;SDS011;41039;49.830;23.988;2023-05-23T06:25:55;12.60;;;4.50;;
55146;SDS011;41039;49.830;23.988;2023-05-23T06:28:21;11.68;;;5.13;;
55146;SDS011;41039;49.830;23.988;2023-05-23T06:30:46;8.70;;;3.20;;
55146;SDS011;41039;49.830;23.988;2023-05-23T06:33:11;18.57;;;4.83;;
55146;SDS011;41039;49.830;23.988;2023-05-23T06:35:37;10.27;;;3.45;;
55146;SDS011;41039;49.830;23.988;2023-05-23T06:38:02;8.83;;;3.63;;
55146;SDS011;41039;49.830;23.988;2023-05-23T06:40:27;11.77;;;4.22;;
55146;SDS011;41039;49.830;23.988;2023-05-23T06:42:52;16.23;;;4.72;;
55146;SDS011;41039;49.830;23.988;2023-05-23T06:45:18;16.15;;;5.07;;
55146;SDS011;41039;49.830;23.988;2023-05-23T06:47:43;19.15;;;5.10;;
55146;SDS011;41039;49.830;23.988;2023-05-23T06:50:09;15.40;;;5.18;;
55146;SDS011;41039;49.830;23.988;2023-05-23T06:52:34;18.27;;;5.38;;
55146;SDS011;41039;49.830;23.988;2023-05-23T06:55:00;13.20;;;4.60;;
55146;SDS011;41039;49.830;23.988;2023-05-23T06:57:25;15.40;;;5.13;;
55146;SDS011;41039;49.830;23.988;2023-05-23T06:59:50;17.87;;;8.33;;
55146;SDS011;41039;49.830;23.988;2023-05-23T07:02:15;14.30;;;5.35;;
55146;SDS011;41039;49.830;23.988;2023-05-23T07:04:40;12.23;;;5.73;;
55146;SDS011;41039;49.830;23.988;2023-05-23T07:07:06;12.03;;;4.67;;
55146;SDS011;41039;49.830;23.988;2023-05-23T07:09:31;11.00;;;5.45;;
55146;SDS011;41039;49.830;23.988;2023-05-23T07:11:56;8.60;;;4.53;;
55146;SDS011;41039;49.830;23.988;2023-05-23T07:14:21;12.13;;;4.80;;
55146;SDS011;41039;49.830;23.988;2023-05-23T07:16:46;12.77;;;5.10;;
55146;SDS011;41039;49.830;23.988;2023-05-23T07:19:12;8.67;;;3.93;;
55146;SDS011;41039;49.830;23.988;2023-05-23T07:21:37;14.85;;;5.28;;
55146;SDS011;41039;49.830;23.988;2023-05-23T07:24:02;6.50;;;3.40;;
55146;SDS011;41039;49.830;23.988;2023-05-23T07:26:27;9.43;;;4.00;;
55146;SDS011;41039;49.830;23.988;2023-05-23T07:28:53;7.45;;;3.55;;
55146;SDS011;41039;49.830;23.988;2023-05-23T07:31:18;8.27;;;3.77;;
55146;SDS011;41039;49.830;23.988;2023-05-23T07:33:43;11.70;;;4.43;;
55146;SDS011;41039;49.830;23.988;2023-05-23T07:36:09;4.43;;;3.15;;
55146;SDS011;41039;49.830;23.988;2023-05-23T07:38:34;9.50;;;3.00;;
55146;SDS011;41039;49.830;23.988;2023-05-23T07:41:00;6.68;;;3.00;;
55146;SDS011;41039;49.830;23.988;2023-05-23T07:43:25;5.97;;;3.00;;
55146;SDS011;41039;49.830;23.988;2023-05-23T07:45:50;8.13;;;3.30;;
55146;SDS011;41039;49.830;23.988;2023-05-23T07:48:16;5.57;;;2.38;;
55146;SDS011;41039;49.830;23.988;2023-05-23T07:50:41;7.70;;;3.00;;
55146;SDS011;41039;49.830;23.988;2023-05-23T07:53:06;5.32;;;2.80;;
55146;SDS011;41039;49.830;23.988;2023-05-23T07:55:31;7.50;;;3.40;;
55146;SDS011;41039;49.830;23.988;2023-05-23T07:57:56;7.37;;;2.80;;
55146;SDS011;41039;49.830;23.988;2023-05-23T08:00:22;9.52;;;3.15;;
55146;SDS011;41039;49.830;23.988;2023-05-23T08:02:47;5.60;;;3.50;;
55146;SDS011;41039;49.830;23.988;2023-05-23T08:05:13;6.32;;;2.95;;
55146;SDS011;41039;49.830;23.988;2023-05-23T08:07:39;5.30;;;2.70;;
55146;SDS011;41039;49.830;23.988;2023-05-23T08:10:05;7.80;;;2.50;;
55146;SDS011;41039;49.830;23.988;2023-05-23T08:12:30;8.43;;;2.80;;
55146;SDS011;41039;49.830;23.988;2023-05-23T08:14:56;7.28;;;3.30;;
55146;SDS011;41039;49.830;23.988;2023-05-23T08:17:21;10.82;;;3.30;;
55146;SDS011;41039;49.830;23.988;2023-05-23T08:19:47;4.72;;;2.42;;
55146;SDS011;41039;49.830;23.988;2023-05-23T08:22:12;7.68;;;3.03;;
55146;SDS011;41039;49.830;23.988;2023-05-23T08:24:37;5.43;;;2.90;;
55146;SDS011;41039;49.830;23.988;2023-05-23T08:27:02;8.18;;;2.45;;
55146;SDS011;41039;49.830;23.988;2023-05-23T08:29:28;9.57;;;3.20;;
55146;SDS011;41039;49.830;23.988;2023-05-23T08:31:53;5.85;;;3.20;;
55146;SDS011;41039;49.830;23.988;2023-05-23T08:34:18;10.03;;;3.00;;
55146;SDS011;41039;49.830;23.988;2023-05-23T08:36:43;5.82;;;2.25;;
55146;SDS011;41039;49.830;23.988;2023-05-23T08:39:09;10.77;;;3.80;;
55146;SDS011;41039;49.830;23.988;2023-05-23T08:41:34;7.28;;;3.10;;
55146;SDS011;41039;49.830;23.988;2023-05-23T08:44:00;6.68;;;2.20;;
55146;SDS011;41039;49.830;23.988;2023-05-23T08:46:25;8.02;;;2.72;;
55146;SDS011;41039;49.830;23.988;2023-05-23T08:48:53;6.03;;;2.67;;
55146;SDS011;41039;49.830;23.988;2023-05-23T08:51:20;7.32;;;2.88;;
55146;SDS011;41039;49.830;23.988;2023-05-23T08:53:45;6.60;;;2.90;;
55146;SDS011;41039;49.830;23.988;2023-05-23T08:56:12;3.70;;;2.60;;
55146;SDS011;41039;49.830;23.988;2023-05-23T08:58:38;4.57;;;2.45;;
55146;SDS011;41039;49.830;23.988;2023-05-23T09:01:07;7.70;;;2.60;;
55146;SDS011;41039;49.830;23.988;2023-05-23T09:03:34;7.55;;;2.60;;
55146;SDS011;41039;49.830;23.988;2023-05-23T09:06:10;5.93;;;2.22;;
55146;SDS011;41039;49.830;23.988;2023-05-23T09:08:36;2.80;;;1.90;;
55146;SDS011;41039;49.830;23.988;2023-05-23T09:11:02;6.55;;;3.70;;
55146;SDS011;41039;49.830;23.988;2023-05-23T09:13:29;8.15;;;2.78;;
55146;SDS011;41039;49.830;23.988;2023-05-23T09:15:55;5.85;;;2.10;;
55146;SDS011;41039;49.830;23.988;2023-05-23T09:18:23;5.57;;;2.28;;
55146;SDS011;41039;49.830;23.988;2023-05-23T09:20:48;5.63;;;2.10;;
55146;SDS011;41039;49.830;23.988;2023-05-23T09:23:14;6.68;;;2.08;;
55146;SDS011;41039;49.830;23.988;2023-05-23T09:25:48;6.25;;;2.60;;
55146;SDS011;41039;49.830;23.988;2023-05-23T09:28:13;5.20;;;2.22;;
55146;SDS011;41039;49.830;23.988;2023-05-23T09:30:39;4.47;;;1.90;;
55146;SDS011;41039;49.830;23.988;2023-05-23T09:33:04;5.38;;;2.15;;
55146;SDS011;41039;49.830;23.988;2023-05-23T09:35:29;7.85;;;2.45;;
55146;SDS011;41039;49.830;23.988;2023-05-23T09:37:55;5.07;;;2.93;;
55146;SDS011;41039;49.830;23.988;2023-05-23T09:40:23;5.65;;;1.95;;
55146;SDS011;41039;49.830;23.988;2023-05-23T09:42:52;5.22;;;2.10;;
55146;SDS011;41039;49.830;23.988;2023-05-23T09:45:18;3.53;;;2.22;;
55146;SDS011;41039;49.830;23.988;2023-05-23T09:47:52;9.10;;;2.70;;
55146;SDS011;41039;49.830;23.988;2023-05-23T09:50:18;3.75;;;1.77;;
55146;SDS011;41039;49.830;23.988;2023-05-23T09:52:43;6.03;;;2.28;;
55146;SDS011;41039;49.830;23.988;2023-05-23T09:55:09;3.83;;;2.20;;
55146;SDS011;41039;49.830;23.988;2023-05-23T09:57:34;4.43;;;1.90;;
55146;SDS011;41039;49.830;23.988;2023-05-23T10:00:02;5.43;;;2.58;;
55146;SDS011;41039;49.830;23.988;2023-05-23T10:05:11;3.75;;;2.22;;
55146;SDS011;41039;49.830;23.988;2023-05-23T10:07:41;5.28;;;2.05;;
55146;SDS011;41039;49.830;23.988;2023-05-23T10:10:07;6.18;;;2.30;;
55146;SDS011;41039;49.830;23.988;2023-05-23T10:12:47;7.43;;;2.60;;
55146;SDS011;41039;49.830;23.988;2023-05-23T10:15:14;6.70;;;2.25;;
55146;SDS011;41039;49.830;23.988;2023-05-23T10:20:07;4.00;;;1.90;;
55146;SDS011;41039;49.830;23.988;2023-05-23T10:22:37;7.03;;;2.28;;
55146;SDS011;41039;49.830;23.988;2023-05-23T10:25:03;7.28;;;2.58;;
55146;SDS011;41039;49.830;23.988;2023-05-23T10:27:29;4.18;;;1.88;;
55146;SDS011;41039;49.830;23.988;2023-05-23T10:29:55;8.57;;;2.58;;
55146;SDS011;41039;49.830;23.988;2023-05-23T10:32:20;5.93;;;2.65;;
55146;SDS011;41039;49.830;23.988;2023-05-23T10:34:56;4.40;;;2.40;;
55146;SDS011;41039;49.830;23.988;2023-05-23T10:37:28;8.95;;;2.05;;
55146;SDS011;41039;49.830;23.988;2023-05-23T10:40:01;8.05;;;2.60;;
55146;SDS011;41039;49.830;23.988;2023-05-23T10:45:22;10.27;;;3.03;;
55146;SDS011;41039;49.830;23.988;2023-05-23T10:47:48;6.60;;;1.98;;
55146;SDS011;41039;49.830;23.988;2023-05-23T10:52:58;7.70;;;2.33;;
55146;SDS011;41039;49.830;23.988;2023-05-23T10:55:24;6.45;;;2.17;;
55146;SDS011;41039;49.830;23.988;2023-05-23T10:58:07;5.72;;;2.33;;
55146;SDS011;41039;49.830;23.988;2023-05-23T11:00:33;10.48;;;3.35;;
55146;SDS011;41039;49.830;23.988;2023-05-23T11:02:58;5.50;;;3.05;;
55146;SDS011;41039;49.830;23.988;2023-05-23T11:05:24;9.18;;;2.83;;
55146;SDS011;41039;49.830;23.988;2023-05-23T11:08:11;5.88;;;2.22;;
55146;SDS011;41039;49.830;23.988;2023-05-23T11:10:51;5.47;;;2.53;;
55146;SDS011;41039;49.830;23.988;2023-05-23T11:13:16;7.95;;;2.10;;
55146;SDS011;41039;49.830;23.988;2023-05-23T11:15:41;5.95;;;2.20;;
55146;SDS011;41039;49.830;23.988;2023-05-23T11:18:09;7.47;;;3.00;;
55146;SDS011;41039;49.830;23.988;2023-05-23T11:20:36;8.15;;;2.78;;
55146;SDS011;41039;49.830;23.988;2023-05-23T11:23:02;11.32;;;2.35;;
55146;SDS011;41039;49.830;23.988;2023-05-23T11:28:08;6.93;;;2.22;;
55146;SDS011;41039;49.830;23.988;2023-05-23T11:30:34;7.45;;;2.60;;
55146;SDS011;41039;49.830;23.988;2023-05-23T11:33:09;6.60;;;2.33;;
55146;SDS011;41039;49.830;23.988;2023-05-23T11:35:38;6.68;;;2.60;;
55146;SDS011;41039;49.830;23.988;2023-05-23T11:38:03;4.82;;;2.30;;
55146;SDS011;41039;49.830;23.988;2023-05-23T11:40:33;7.80;;;2.58;;
55146;SDS011;41039;49.830;23.988;2023-05-23T11:42:59;8.93;;;3.22;;
55146;SDS011;41039;49.830;23.988;2023-05-23T11:45:25;5.38;;;2.33;;
55146;SDS011;41039;49.830;23.988;2023-05-23T11:47:51;7.93;;;2.80;;
55146;SDS011;41039;49.830;23.988;2023-05-23T11:50:17;8.02;;;2.30;;
55146;SDS011;41039;49.830;23.988;2023-05-23T11:52:44;3.83;;;1.85;;
55146;SDS011;41039;49.830;23.988;2023-05-23T11:55:15;6.63;;;2.55;;
55146;SDS011;41039;49.830;23.988;2023-05-23T11:57:40;4.75;;;2.10;;
55146;SDS011;41039;49.830;23.988;2023-05-23T12:00:06;8.07;;;2.53;;
55146;SDS011;41039;49.830;23.988;2023-05-23T12:02:37;5.60;;;1.85;;
55146;SDS011;41039;49.830;23.988;2023-05-23T12:05:05;4.60;;;2.08;;
55146;SDS011;41039;49.830;23.988;2023-05-23T12:07:32;6.07;;;2.10;;
55146;SDS011;41039;49.830;23.988;2023-05-23T12:09:57;3.55;;;1.50;;
55146;SDS011;41039;49.830;23.988;2023-05-23T12:12:22;4.37;;;1.70;;
55146;SDS011;41039;49.830;23.988;2023-05-23T12:14:47;5.90;;;1.83;;
55146;SDS011;41039;49.830;23.988;2023-05-23T12:17:13;6.60;;;2.53;;
55146;SDS011;41039;49.830;23.988;2023-05-23T12:19:38;7.60;;;2.20;;
55146;SDS011;41039;49.830;23.988;2023-05-23T12:22:04;6.55;;;2.50;;
55146;SDS011;41039;49.830;23.988;2023-05-23T12:24:31;7.88;;;2.42;;
55146;SDS011;41039;49.830;23.988;2023-05-23T12:27:00;6.57;;;2.23;;
55146;SDS011;41039;49.830;23.988;2023-05-23T12:29:29;6.03;;;2.15;;
55146;SDS011;41039;49.830;23.988;2023-05-23T12:31:56;7.15;;;2.25;;
55146;SDS011;41039;49.830;23.988;2023-05-23T12:34:22;6.10;;;1.95;;
55146;SDS011;41039;49.830;23.988;2023-05-23T12:36:47;6.82;;;2.92;;
55146;SDS011;41039;49.830;23.988;2023-05-23T12:39:22;4.55;;;1.75;;
55146;SDS011;41039;49.830;23.988;2023-05-23T12:41:48;9.20;;;2.80;;
55146;SDS011;41039;49.830;23.988;2023-05-23T12:44:16;10.70;;;3.03;;
55146;SDS011;41039;49.830;23.988;2023-05-23T12:46:41;5.90;;;2.15;;
55146;SDS011;41039;49.830;23.988;2023-05-23T12:49:07;6.32;;;2.30;;
55146;SDS011;41039;49.830;23.988;2023-05-23T12:51:32;5.63;;;2.17;;
55146;SDS011;41039;49.830;23.988;2023-05-23T12:53:58;5.97;;;2.33;;
55146;SDS011;41039;49.830;23.988;2023-05-23T12:56:23;4.85;;;2.03;;
55146;SDS011;41039;49.830;23.988;2023-05-23T12:58:48;7.65;;;2.17;;
55146;SDS011;41039;49.830;23.988;2023-05-23T13:01:13;5.70;;;2.30;;
55146;SDS011;41039;49.830;23.988;2023-05-23T13:03:39;5.85;;;2.88;;
55146;SDS011;41039;49.830;23.988;2023-05-23T13:06:04;4.30;;;2.53;;
55146;SDS011;41039;49.830;23.988;2023-05-23T13:08:30;5.25;;;1.73;;
55146;SDS011;41039;49.830;23.988;2023-05-23T13:10:56;7.28;;;2.67;;
55146;SDS011;41039;49.830;23.988;2023-05-23T13:13:21;6.53;;;2.38;;
55146;SDS011;41039;49.830;23.988;2023-05-23T13:15:46;5.57;;;2.10;;
55146;SDS011;41039;49.830;23.988;2023-05-23T13:18:12;4.70;;;2.20;;
55146;SDS011;41039;49.830;23.988;2023-05-23T13:20:37;16.67;;;3.77;;
55146;SDS011;41039;49.830;23.988;2023-05-23T13:23:02;9.03;;;2.17;;
55146;SDS011;41039;49.830;23.988;2023-05-23T13:25:28;8.75;;;2.53;;
55146;SDS011;41039;49.830;23.988;2023-05-23T13:27:53;5.78;;;2.10;;
55146;SDS011;41039;49.830;23.988;2023-05-23T13:30:19;10.00;;;2.25;;
55146;SDS011;41039;49.830;23.988;2023-05-23T13:32:44;6.88;;;2.60;;
55146;SDS011;41039;49.830;23.988;2023-05-23T13:35:09;3.30;;;1.60;;
55146;SDS011;41039;49.830;23.988;2023-05-23T13:37:35;6.47;;;2.40;;
55146;SDS011;41039;49.830;23.988;2023-05-23T13:40:01;6.68;;;2.88;;
55146;SDS011;41039;49.830;23.988;2023-05-23T13:42:27;5.50;;;2.42;;
55146;SDS011;41039;49.830;23.988;2023-05-23T13:44:52;6.72;;;2.60;;
55146;SDS011;41039;49.830;23.988;2023-05-23T13:47:17;7.33;;;2.30;;
55146;SDS011;41039;49.830;23.988;2023-05-23T13:49:43;4.78;;;1.90;;
55146;SDS011;41039;49.830;23.988;2023-05-23T13:52:08;4.32;;;2.42;;
55146;SDS011;41039;49.830;23.988;2023-05-23T13:54:33;4.68;;;1.90;;
55146;SDS011;41039;49.830;23.988;2023-05-23T13:56:59;5.88;;;1.95;;
55146;SDS011;41039;49.830;23.988;2023-05-23T13:59:25;4.60;;;2.15;;
55146;SDS011;41039;49.830;23.988;2023-05-23T14:01:51;3.67;;;1.77;;
55146;SDS011;41039;49.830;23.988;2023-05-23T14:04:16;5.65;;;2.00;;
55146;SDS011;41039;49.830;23.988;2023-05-23T14:06:42;6.57;;;2.75;;
55146;SDS011;41039;49.830;23.988;2023-05-23T14:09:07;5.20;;;2.10;;
55146;SDS011;41039;49.830;23.988;2023-05-23T14:11:33;11.48;;;2.30;;
55146;SDS011;41039;49.830;23.988;2023-05-23T14:13:59;3.95;;;1.63;;
55146;SDS011;41039;49.830;23.988;2023-05-23T14:16:24;3.65;;;1.70;;
55146;SDS011;41039;49.830;23.988;2023-05-23T14:18:49;6.57;;;2.00;;
55146;SDS011;41039;49.830;23.988;2023-05-23T14:21:14;5.20;;;1.80;;
55146;SDS011;41039;49.830;23.988;2023-05-23T14:23:40;3.03;;;1.48;;
55146;SDS011;41039;49.830;23.988;2023-05-23T14:26:05;4.72;;;2.25;;
55146;SDS011;41039;49.830;23.988;2023-05-23T14:28:30;5.70;;;3.00;;
55146;SDS011;41039;49.830;23.988;2023-05-23T14:30:56;7.13;;;2.20;;
55146;SDS011;41039;49.830;23.988;2023-05-23T14:33:21;3.42;;;2.15;;
55146;SDS011;41039;49.830;23.988;2023-05-23T14:35:46;8.05;;;2.95;;
55146;SDS011;41039;49.830;23.988;2023-05-23T14:38:11;3.17;;;1.83;;
55146;SDS011;41039;49.830;23.988;2023-05-23T14:40:37;6.40;;;2.40;;
55146;SDS011;41039;49.830;23.988;2023-05-23T14:43:02;5.30;;;1.80;;
55146;SDS011;41039;49.830;23.988;2023-05-23T14:45:27;4.57;;;2.20;;